Time;durP1;ratioP1;P1;durP2;ratioP2;P2;SDS_P1;SDS_P2;PMS_P1;PMS_P2;Temp;Humidity;BMP_temperature;BMP_pressure;BME280_temperature;BME280_humidity;BME280_pressure;Samples;Min_cycle;Max_cycle;Signal;HPM_P1;HPM_P2
2023/10/04 00:00:53;;;;;;;18.13;6.93;;;10.10;99.90;;;;;;4208356;28;20105;-57
2023/10/04 00:02:55;;;;;;;18.87;6.57;;;10.10;99.90;;;;;;4209779;28;20039;-60
2023/10/04 00:04:56;;;;;;;18.40;7.43;;;10.00;99.90;;;;;;4208948;28;20066;-57
2023/10/04 00:06:57;;;;;;;15.87;7.23;;;10.00;99.90;;;;;;4211116;28;20044;-58
2023/10/04 00:08:59;;;;;;;15.77;7.20;;;9.90;99.90;;;;;;4210164;28;20028;-57
2023/10/04 00:11:02;;;;;;;15.00;6.43;;;9.90;99.90;;;;;;4209336;28;20012;-61
2023/10/04 00:13:03;;;;;;;16.23;7.53;;;9.90;99.90;;;;;;4210045;28;20101;-59
2023/10/04 00:15:09;;;;;;;20.73;7.47;;;9.90;99.90;;;;;;4210044;28;20106;-57
2023/10/04 00:17:10;;;;;;;16.27;7.13;;;9.90;99.90;;;;;;4210442;28;20082;-56
2023/10/04 00:19:12;;;;;;;13.83;6.90;;;9.90;99.90;;;;;;4209492;28;20399;-54
2023/10/04 00:21:13;;;;;;;18.07;7.37;;;9.90;99.90;;;;;;4210692;28;20028;-61
2023/10/04 00:23:14;;;;;;;14.70;6.37;;;9.90;99.90;;;;;;4209407;28;20093;-58
2023/10/04 00:25:20;;;;;;;16.43;7.30;;;10.00;99.90;;;;;;4210470;28;20326;-58
2023/10/04 00:27:21;;;;;;;19.87;7.10;;;10.00;99.90;;;;;;4209608;28;20077;-60
2023/10/04 00:29:23;;;;;;;16.83;7.10;;;10.00;99.90;;;;;;4210237;28;20073;-59
2023/10/04 00:31:24;;;;;;;11.97;6.30;;;10.00;99.90;;;;;;4209294;28;20040;-60
2023/10/04 00:33:26;;;;;;;12.73;6.00;;;10.10;99.90;;;;;;4209777;28;20621;-59
2023/10/04 00:35:27;;;;;;;16.27;6.47;;;10.00;99.90;;;;;;4209454;28;20036;-57
2023/10/04 00:37:28;;;;;;;14.27;6.40;;;10.10;99.90;;;;;;4211311;28;20036;-60
2023/10/04 00:39:29;;;;;;;15.80;7.23;;;10.10;99.90;;;;;;4209611;28;20036;-59
2023/10/04 00:41:32;;;;;;;11.00;6.00;;;10.00;99.90;;;;;;4210315;28;20052;-60
2023/10/04 00:43:47;;;;;;;11.10;5.83;;;10.00;99.90;;;;;;4209784;28;20048;-58
2023/10/04 00:45:49;;;;;;;12.43;6.37;;;10.00;99.90;;;;;;4210065;28;20482;-58
2023/10/04 00:47:57;;;;;;;14.27;6.40;;;10.00;99.90;;;;;;4209884;28;20033;-58
2023/10/04 00:50:09;;;;;;;14.40;6.13;;;10.00;99.90;;;;;;4193716;28;20048;-59
2023/10/04 00:52:11;;;;;;;11.43;5.40;;;9.90;99.90;;;;;;4192883;28;20454;-58
2023/10/04 00:54:13;;;;;;;12.00;6.10;;;9.80;99.90;;;;;;4192737;28;20556;-58
2023/10/04 00:56:16;;;;;;;10.67;5.93;;;9.80;99.90;;;;;;4193279;28;20078;-58
2023/10/04 00:58:18;;;;;;;12.03;6.20;;;9.80;99.90;;;;;;4205405;28;20460;-60
2023/10/04 01:00:19;;;;;;;14.87;6.60;;;9.80;99.90;;;;;;4208827;28;20036;-58
2023/10/04 01:02:20;;;;;;;16.20;5.97;;;9.80;99.90;;;;;;4209069;28;20040;-59
2023/10/04 01:04:22;;;;;;;11.67;6.27;;;9.80;99.90;;;;;;4209239;28;20173;-58
2023/10/04 01:06:23;;;;;;;11.77;6.30;;;9.80;99.90;;;;;;4208255;28;20369;-58
2023/10/04 01:08:24;;;;;;;12.37;6.17;;;9.80;99.90;;;;;;4209472;28;20111;-57
2023/10/04 01:10:30;;;;;;;12.47;5.83;;;9.80;99.90;;;;;;4209297;28;20033;-60
2023/10/04 01:12:31;;;;;;;11.80;6.03;;;9.80;99.90;;;;;;4209711;28;20074;-59
2023/10/04 01:14:37;;;;;;;11.50;6.07;;;9.80;99.90;;;;;;4209318;28;20037;-55
2023/10/04 01:16:41;;;;;;;11.30;6.07;;;9.80;99.90;;;;;;4210369;28;20036;-58
2023/10/04 01:18:44;;;;;;;12.23;5.40;;;9.70;99.90;;;;;;4208884;28;20404;-57
2023/10/04 01:20:46;;;;;;;13.73;6.67;;;9.70;99.90;;;;;;4210290;28;20044;-57
2023/10/04 01:22:47;;;;;;;14.17;6.77;;;9.70;99.90;;;;;;4210519;28;20521;-56
2023/10/04 01:24:48;;;;;;;11.17;6.47;;;9.60;99.90;;;;;;4212803;28;20025;-61
2023/10/04 01:26:50;;;;;;;12.80;6.40;;;9.60;99.90;;;;;;4212612;28;20016;-59
2023/10/04 01:28:52;;;;;;;16.27;7.70;;;9.60;99.90;;;;;;4212540;28;20066;-59
2023/10/04 01:30:55;;;;;;;15.10;7.33;;;9.60;99.90;;;;;;4212937;28;20036;-58
2023/10/04 01:32:59;;;;;;;11.87;6.47;;;9.50;99.90;;;;;;4212348;28;20089;-58
2023/10/04 01:35:00;;;;;;;14.13;6.90;;;9.50;99.90;;;;;;4213092;28;20094;-56
2023/10/04 01:37:02;;;;;;;13.87;6.93;;;9.50;99.90;;;;;;4212596;28;20440;-56
2023/10/04 01:39:18;;;;;;;12.70;6.73;;;9.50;99.90;;;;;;4213030;28;20058;-58
2023/10/04 01:41:19;;;;;;;15.77;7.50;;;9.50;99.90;;;;;;4212122;28;20492;-59
2023/10/04 01:43:24;;;;;;;14.47;7.17;;;9.50;99.90;;;;;;4213138;28;20060;-59
2023/10/04 01:45:25;;;;;;;11.17;5.93;;;9.50;99.90;;;;;;4211640;28;20040;-56
2023/10/04 01:47:26;;;;;;;15.43;6.20;;;9.50;99.90;;;;;;4213008;28;20036;-59
2023/10/04 01:49:27;;;;;;;13.50;6.17;;;9.50;99.90;;;;;;4211877;28;20090;-59
2023/10/04 01:51:29;;;;;;;13.20;6.27;;;9.50;99.90;;;;;;4213119;28;20549;-59
2023/10/04 01:53:33;;;;;;;12.93;6.70;;;9.50;99.90;;;;;;4209961;28;20460;-59
2023/10/04 01:55:34;;;;;;;14.73;6.97;;;9.50;99.90;;;;;;4212791;28;20077;-59
2023/10/04 01:57:36;;;;;;;13.53;6.67;;;9.50;99.90;;;;;;4211542;28;20461;-57
2023/10/04 01:59:37;;;;;;;13.80;6.03;;;9.50;99.90;;;;;;4212802;28;20048;-59
2023/10/04 02:01:39;;;;;;;12.30;5.77;;;9.50;99.90;;;;;;4210491;28;20379;-59
2023/10/04 02:03:40;;;;;;;15.60;6.50;;;9.40;99.90;;;;;;4212337;28;20035;-59
2023/10/04 02:05:42;;;;;;;11.03;5.27;;;9.40;99.90;;;;;;4211375;28;20554;-59
2023/10/04 02:07:46;;;;;;;11.03;6.30;;;9.40;99.90;;;;;;4212640;28;20044;-59
2023/10/04 02:09:53;;;;;;;14.47;6.90;;;9.40;99.90;;;;;;4211266;28;20057;-58
2023/10/04 02:11:54;;;;;;;13.63;6.57;;;9.40;99.90;;;;;;4210411;28;20073;-58
2023/10/04 02:13:57;;;;;;;13.17;6.40;;;9.30;99.90;;;;;;4211442;28;20109;-58
2023/10/04 02:15:59;;;;;;;14.07;6.20;;;9.30;99.90;;;;;;4211323;28;20600;-61
2023/10/04 02:18:01;;;;;;;10.30;5.60;;;9.30;99.90;;;;;;4212539;28;20036;-59
2023/10/04 02:20:02;;;;;;;11.00;6.50;;;9.30;99.90;;;;;;4210890;28;20048;-59
2023/10/04 02:22:15;;;;;;;10.90;5.27;;;9.20;99.90;;;;;;4212770;28;20040;-59
2023/10/04 02:24:16;;;;;;;15.57;7.20;;;9.20;99.90;;;;;;4211210;28;20035;-59
2023/10/04 02:26:17;;;;;;;14.37;6.70;;;9.20;99.90;;;;;;4212374;28;20024;-61
2023/10/04 02:28:18;;;;;;;11.67;6.07;;;9.20;99.90;;;;;;4211047;28;20377;-59
2023/10/04 02:30:22;;;;;;;13.90;7.30;;;9.10;99.90;;;;;;4212169;28;20494;-58
2023/10/04 02:32:25;;;;;;;12.33;6.37;;;9.00;99.90;;;;;;4210635;28;20101;-60
2023/10/04 02:34:27;;;;;;;12.97;5.27;;;9.00;99.90;;;;;;4211673;28;20833;-60
2023/10/04 02:36:30;;;;;;;10.80;5.63;;;9.00;99.90;;;;;;4211021;28;20423;-59
2023/10/04 02:38:34;;;;;;;9.13;5.10;;;8.90;99.90;;;;;;4211252;28;20464;-57
2023/10/04 02:40:35;;;;;;;16.67;6.60;;;8.90;99.90;;;;;;4211044;28;20054;-59
2023/10/04 02:42:36;;;;;;;15.43;6.80;;;9.00;99.90;;;;;;4211378;28;20450;-57
2023/10/04 02:44:37;;;;;;;13.90;6.60;;;8.90;99.90;;;;;;4211424;28;20044;-59
2023/10/04 02:46:41;;;;;;;11.47;6.33;;;8.90;99.90;;;;;;4211258;28;20044;-57
2023/10/04 02:48:43;;;;;;;10.00;6.30;;;8.90;99.90;;;;;;4211622;28;20058;-60
2023/10/04 02:50:44;;;;;;;13.37;6.43;;;8.90;99.90;;;;;;4210761;28;20028;-57
2023/10/04 02:52:46;;;;;;;10.43;5.90;;;9.00;99.90;;;;;;4211679;28;20040;-60
2023/10/04 02:54:47;;;;;;;13.83;6.43;;;8.90;99.90;;;;;;4210469;28;20104;-59
2023/10/04 02:56:50;;;;;;;10.27;6.03;;;9.00;99.90;;;;;;4212030;28;20044;-58
2023/10/04 02:58:51;;;;;;;14.87;7.80;;;9.00;99.90;;;;;;4210408;28;20012;-60
2023/10/04 03:00:54;;;;;;;12.27;6.90;;;9.00;99.90;;;;;;4210822;28;20036;-59
2023/10/04 03:02:55;;;;;;;13.13;6.83;;;9.00;99.90;;;;;;4208794;28;20032;-60
2023/10/04 03:04:56;;;;;;;15.50;6.90;;;8.90;99.90;;;;;;4210402;28;20476;-59
2023/10/04 03:06:58;;;;;;;16.73;7.03;;;8.90;99.90;;;;;;4209600;28;20044;-59
2023/10/04 03:08:59;;;;;;;15.30;6.93;;;9.00;99.90;;;;;;4209911;28;20372;-55
2023/10/04 03:11:03;;;;;;;14.20;6.73;;;9.00;99.90;;;;;;4208457;28;20085;-60
2023/10/04 03:13:12;;;;;;;12.00;6.27;;;9.00;99.90;;;;;;4210818;28;20048;-58
2023/10/04 03:15:13;;;;;;;11.93;6.47;;;9.00;99.90;;;;;;4210308;28;20732;-57
2023/10/04 03:17:15;;;;;;;9.87;6.70;;;9.00;99.90;;;;;;4210374;28;20028;-58
2023/10/04 03:19:17;;;;;;;13.07;6.27;;;9.00;99.90;;;;;;4210580;28;20024;-57
2023/10/04 03:21:20;;;;;;;12.20;6.73;;;9.00;99.90;;;;;;4209765;28;20020;-59
2023/10/04 03:23:26;;;;;;;12.23;7.00;;;8.90;99.90;;;;;;4210759;28;20081;-58
2023/10/04 03:25:27;;;;;;;12.53;5.97;;;8.90;99.90;;;;;;4208949;28;20032;-58
2023/10/04 03:27:28;;;;;;;14.40;6.17;;;8.80;99.90;;;;;;4211936;28;20032;-58
2023/10/04 03:29:29;;;;;;;15.83;7.20;;;8.80;99.90;;;;;;4210407;28;20039;-59
2023/10/04 03:31:33;;;;;;;16.47;7.60;;;8.80;99.90;;;;;;4210394;28;20153;-57
2023/10/04 03:33:38;;;;;;;9.77;5.97;;;8.80;99.90;;;;;;4208726;28;20441;-59
2023/10/04 03:35:39;;;;;;;12.93;6.53;;;8.70;99.90;;;;;;4211260;28;20036;-58
2023/10/04 03:37:58;;;;;;;11.87;6.30;;;8.70;99.90;;;;;;4209227;28;20032;-59
2023/10/04 03:40:00;;;;;;;11.87;5.77;;;8.70;99.90;;;;;;4207032;28;20061;-60
2023/10/04 03:42:01;;;;;;;11.60;5.73;;;8.70;99.90;;;;;;4208414;28;20094;-59
2023/10/04 03:44:05;;;;;;;22.70;7.10;;;8.60;99.90;;;;;;4210933;28;20044;-59
2023/10/04 03:46:18;;;;;;;11.17;5.93;;;8.40;99.90;;;;;;4209143;28;20032;-56
2023/10/04 03:48:21;;;;;;;10.17;5.10;;;8.40;99.90;;;;;;4209731;28;20040;-59
2023/10/04 03:50:24;;;;;;;10.70;5.23;;;8.40;99.90;;;;;;4209697;28;20036;-58
2023/10/04 03:52:27;;;;;;;10.10;4.70;;;8.40;99.90;;;;;;4210634;28;20036;-58
2023/10/04 03:54:28;;;;;;;17.67;5.53;;;8.40;99.90;;;;;;4209638;28;20132;-56
2023/10/04 03:56:29;;;;;;;15.40;6.27;;;8.40;99.90;;;;;;4210318;28;20036;-58
2023/10/04 03:58:35;;;;;;;11.67;6.00;;;8.50;99.90;;;;;;4209481;28;20024;-58
2023/10/04 04:00:37;;;;;;;12.90;6.70;;;8.50;99.90;;;;;;4209922;28;20036;-59
2023/10/04 04:02:41;;;;;;;9.97;5.80;;;8.50;99.90;;;;;;4209918;28;20090;-58
2023/10/04 04:04:43;;;;;;;13.33;5.67;;;8.50;99.90;;;;;;4210009;28;20755;-58
2023/10/04 04:06:44;;;;;;;12.77;6.47;;;8.50;99.90;;;;;;4210547;28;20040;-58
2023/10/04 04:08:48;;;;;;;10.63;6.60;;;8.50;99.90;;;;;;4209610;28;20032;-57
2023/10/04 04:10:50;;;;;;;14.37;6.37;;;8.50;99.90;;;;;;4210276;28;20070;-56
2023/10/04 04:12:52;;;;;;;15.13;6.67;;;8.50;99.90;;;;;;4208910;28;20048;-59
2023/10/04 04:14:53;;;;;;;16.80;7.20;;;8.40;99.90;;;;;;4210406;28;20476;-58
2023/10/04 04:16:56;;;;;;;13.27;6.70;;;8.40;99.90;;;;;;4208316;28;20036;-53
2023/10/04 04:18:59;;;;;;;14.40;7.20;;;8.40;99.90;;;;;;4204508;28;20388;-57
2023/10/04 04:21:00;;;;;;;16.70;8.07;;;8.40;99.90;;;;;;4208296;28;20040;-57
2023/10/04 04:23:05;;;;;;;20.57;8.47;;;8.40;99.90;;;;;;4210096;28;20028;-58
2023/10/04 04:25:14;;;;;;;22.37;8.50;;;8.40;99.90;;;;;;4208746;28;20056;-59
2023/10/04 04:27:21;;;;;;;25.27;7.97;;;8.40;99.90;;;;;;4210277;28;20047;-57
2023/10/04 04:29:22;;;;;;;18.57;7.53;;;8.50;99.90;;;;;;4208174;28;20396;-57
2023/10/04 04:31:24;;;;;;;18.80;8.00;;;8.40;99.90;;;;;;4209520;28;20077;-57
2023/10/04 04:33:28;;;;;;;16.60;7.13;;;8.50;99.90;;;;;;4208797;28;20098;-58
2023/10/04 04:37:36;;;;;;;16.30;6.67;;;8.50;99.90;;;;;;4204998;28;20085;-58
2023/10/04 04:39:40;;;;;;;19.07;8.20;;;8.50;99.90;;;;;;4209566;28;20028;-58
2023/10/04 04:41:42;;;;;;;14.87;7.10;;;8.50;99.90;;;;;;4193399;28;20016;-59
2023/10/04 04:43:43;;;;;;;20.53;8.17;;;8.50;99.90;;;;;;4208237;28;20032;-59
2023/10/04 04:45:50;;;;;;;16.13;6.67;;;8.50;99.90;;;;;;4209921;28;20501;-55
2023/10/04 04:47:52;;;;;;;20.03;7.87;;;8.70;99.90;;;;;;4209774;28;20085;-57
2023/10/04 04:49:55;;;;;;;16.37;7.43;;;8.90;99.90;;;;;;4209675;28;20028;-59
2023/10/04 04:51:56;;;;;;;13.90;6.97;;;9.20;99.90;;;;;;4208796;28;20040;-59
2023/10/04 04:53:57;;;;;;;16.30;7.67;;;9.40;99.90;;;;;;4209675;28;20048;-56
2023/10/04 04:55:58;;;;;;;15.23;7.97;;;9.60;99.90;;;;;;4208988;28;20450;-59
2023/10/04 04:58:01;;;;;;;16.37;7.93;;;9.80;99.90;;;;;;4213355;28;20028;-58
2023/10/04 05:00:30;;;;;;;20.20;8.20;;;10.00;99.90;;;;;;4211764;28;20041;-59
2023/10/04 05:02:28;;;;;;;20.70;7.37;;;10.10;99.90;;;;;;4213202;28;20589;-59
2023/10/04 05:04:29;;;;;;;21.03;8.37;;;10.20;99.90;;;;;;4212162;28;20044;-59
2023/10/04 05:06:30;;;;;;;25.27;8.50;;;10.50;99.90;;;;;;4213811;28;20085;-59
2023/10/04 05:08:31;;;;;;;15.97;8.20;;;10.50;99.90;;;;;;4211935;28;20028;-59
2023/10/04 05:10:39;;;;;;;22.33;10.53;;;10.40;99.90;;;;;;4213191;28;20078;-60
2023/10/04 05:12:41;;;;;;;18.83;8.40;;;10.10;99.90;;;;;;4212215;28;20052;-58
2023/10/04 05:14:43;;;;;;;21.60;10.17;;;9.80;99.90;;;;;;4213320;28;20110;-59
2023/10/04 05:16:44;;;;;;;21.70;9.27;;;9.60;99.90;;;;;;4212309;28;20048;-59
2023/10/04 05:18:45;;;;;;;19.50;8.63;;;9.40;99.90;;;;;;4213283;28;20763;-60
2023/10/04 05:20:53;;;;;;;20.73;8.90;;;9.30;99.90;;;;;;4211783;28;20028;-58
2023/10/04 05:22:54;;;;;;;26.93;9.63;;;9.20;99.90;;;;;;4212723;28;20101;-59
2023/10/04 05:24:56;;;;;;;23.77;9.27;;;9.10;99.90;;;;;;4212017;28;20766;-59
2023/10/04 05:26:57;;;;;;;17.17;9.33;;;8.90;99.90;;;;;;4212333;28;20078;-59
2023/10/04 05:29:00;;;;;;;28.87;12.27;;;8.80;99.90;;;;;;4212469;28;20040;-59
2023/10/04 05:31:02;;;;;;;24.47;10.87;;;8.80;99.90;;;;;;4212012;28;20385;-59
2023/10/04 05:33:06;;;;;;;21.60;10.90;;;8.70;99.90;;;;;;4212624;28;20031;-57
2023/10/04 05:35:12;;;;;;;27.97;11.27;;;8.70;99.90;;;;;;4211851;28;20090;-57
2023/10/04 05:37:13;;;;;;;23.60;11.63;;;8.70;99.90;;;;;;4213011;28;20334;-56
2023/10/04 05:39:15;;;;;;;27.97;11.43;;;8.80;99.90;;;;;;4211755;28;20101;-57
2023/10/04 05:41:18;;;;;;;26.00;12.17;;;8.80;99.90;;;;;;4213036;28;20039;-57
2023/10/04 05:43:19;;;;;;;33.17;12.23;;;8.80;99.90;;;;;;4211329;28;20047;-58
2023/10/04 05:45:21;;;;;;;21.60;11.07;;;9.00;99.90;;;;;;4212740;28;20833;-58
2023/10/04 05:47:23;;;;;;;22.83;11.73;;;9.00;99.90;;;;;;4211500;28;20040;-58
2023/10/04 05:49:26;;;;;;;26.30;10.30;;;9.10;99.90;;;;;;4212635;28;20020;-58
2023/10/04 05:51:27;;;;;;;26.00;9.17;;;9.20;99.90;;;;;;4211865;28;20028;-59
2023/10/04 05:53:28;;;;;;;21.57;9.27;;;9.20;99.90;;;;;;4212285;28;20036;-60
2023/10/04 05:55:29;;;;;;;15.27;9.87;;;9.20;99.90;;;;;;4211486;28;20025;-58
2023/10/04 05:57:30;;;;;;;20.10;9.87;;;9.20;99.90;;;;;;4212169;28;20545;-59
2023/10/04 05:59:34;;;;;;;16.27;9.43;;;9.20;99.90;;;;;;4211637;28;20032;-59
2023/10/04 06:01:37;;;;;;;19.77;9.83;;;9.30;99.90;;;;;;4211882;28;20032;-59
2023/10/04 06:03:38;;;;;;;18.07;9.73;;;9.20;99.90;;;;;;4211841;28;20032;-60
2023/10/04 06:05:41;;;;;;;16.90;9.33;;;9.20;99.90;;;;;;4211246;28;20062;-59
2023/10/04 06:07:43;;;;;;;18.83;9.80;;;9.20;99.90;;;;;;4211925;28;20120;-59
2023/10/04 06:09:45;;;;;;;18.57;10.13;;;9.30;99.90;;;;;;4210658;28;20032;-61
2023/10/04 06:11:47;;;;;;;24.17;11.50;;;9.30;99.90;;;;;;4212010;28;21056;-59
2023/10/04 06:13:48;;;;;;;21.17;10.90;;;9.30;99.90;;;;;;4211002;28;20880;-60
2023/10/04 06:15:55;;;;;;;19.03;9.97;;;9.40;99.90;;;;;;4212013;28;20036;-58
2023/10/04 06:17:57;;;;;;;16.47;9.57;;;9.40;99.90;;;;;;4210993;28;20036;-59
2023/10/04 06:19:58;;;;;;;17.67;10.43;;;9.40;99.90;;;;;;4210685;28;20043;-59
2023/10/04 06:22:00;;;;;;;19.53;11.47;;;9.50;99.90;;;;;;4210882;28;20048;-57
2023/10/04 06:24:01;;;;;;;21.87;10.77;;;9.50;99.90;;;;;;4211414;28;20036;-58
2023/10/04 06:26:02;;;;;;;16.17;9.97;;;9.50;99.90;;;;;;4210743;28;20430;-59
2023/10/04 06:28:04;;;;;;;16.20;9.90;;;9.60;99.90;;;;;;4211735;28;20032;-58
2023/10/04 06:30:06;;;;;;;20.47;10.33;;;9.50;99.90;;;;;;4210744;28;20033;-58
2023/10/04 06:32:08;;;;;;;16.97;9.57;;;9.50;99.90;;;;;;4211672;28;20446;-59
2023/10/04 06:34:09;;;;;;;18.27;10.27;;;9.60;99.90;;;;;;4210666;28;20048;-60
2023/10/04 06:36:10;;;;;;;15.43;9.40;;;9.60;99.90;;;;;;4211360;28;20089;-58
2023/10/04 06:38:12;;;;;;;22.73;9.00;;;9.60;99.90;;;;;;4211271;28;20040;-61
2023/10/04 06:40:19;;;;;;;20.10;10.53;;;9.70;99.90;;;;;;4210914;28;20028;-60
2023/10/04 06:42:20;;;;;;;20.03;10.40;;;9.80;99.90;;;;;;4211662;28;20072;-60
2023/10/04 06:44:22;;;;;;;19.03;10.53;;;10.20;99.90;;;;;;4211165;28;20512;-60
2023/10/04 06:46:23;;;;;;;21.23;10.27;;;10.40;99.90;;;;;;4211633;28;20044;-60
2023/10/04 06:48:25;;;;;;;21.27;11.63;;;10.70;99.90;;;;;;4210702;28;20376;-60
2023/10/04 06:50:28;;;;;;;23.10;9.60;;;11.10;99.90;;;;;;4211879;28;20035;-59
2023/10/04 06:52:29;;;;;;;19.80;10.47;;;11.40;99.90;;;;;;4210322;28;20032;-61
2023/10/04 06:54:30;;;;;;;17.17;9.60;;;11.80;99.90;;;;;;4211398;28;20062;-59
2023/10/04 06:56:32;;;;;;;15.93;9.17;;;12.10;99.90;;;;;;4210332;28;20510;-58
2023/10/04 06:58:33;;;;;;;21.23;9.33;;;12.60;99.90;;;;;;4211064;28;20093;-58
2023/10/04 07:00:37;;;;;;;30.43;9.57;;;12.80;99.90;;;;;;4210518;28;20027;-60
2023/10/04 07:02:40;;;;;;;18.67;10.40;;;12.80;99.90;;;;;;4211548;28;20043;-61
2023/10/04 07:04:41;;;;;;;19.13;9.50;;;13.30;99.90;;;;;;4210291;28;20426;-60
2023/10/04 07:06:44;;;;;;;17.90;9.40;;;13.40;99.90;;;;;;4211374;28;20464;-59
2023/10/04 07:08:45;;;;;;;18.60;9.43;;;13.70;99.90;;;;;;4210445;28;20121;-59
2023/10/04 07:10:46;;;;;;;16.50;9.83;;;13.80;99.90;;;;;;4210872;28;20387;-59
2023/10/04 07:12:49;;;;;;;23.77;10.57;;;13.70;99.90;;;;;;4210633;28;20109;-59
2023/10/04 07:14:50;;;;;;;18.63;9.80;;;13.40;99.90;;;;;;4210249;28;20048;-59
2023/10/04 07:16:52;;;;;;;24.97;9.47;;;13.20;99.90;;;;;;4210992;28;20105;-58
2023/10/04 07:18:53;;;;;;;19.27;9.63;;;13.30;99.90;;;;;;4209696;28;20032;-58
2023/10/04 07:20:54;;;;;;;21.03;9.10;;;13.60;99.90;;;;;;4210185;28;20032;-58
2023/10/04 07:22:59;;;;;;;15.27;9.37;;;13.80;99.90;;;;;;4210071;28;20032;-60
2023/10/04 07:25:01;;;;;;;16.07;8.90;;;14.20;99.90;;;;;;4211119;28;20081;-58
2023/10/04 07:27:02;;;;;;;18.03;9.67;;;14.30;99.90;;;;;;4209835;28;20043;-60
2023/10/04 07:29:03;;;;;;;18.10;9.47;;;14.30;99.90;;;;;;4210850;28;20032;-60
2023/10/04 07:31:05;;;;;;;20.03;10.20;;;14.50;99.90;;;;;;4210004;28;20028;-58
2023/10/04 07:33:09;;;;;;;22.87;9.60;;;14.60;99.90;;;;;;4211260;28;20028;-59
2023/10/04 07:35:13;;;;;;;16.90;9.57;;;14.60;99.90;;;;;;4209575;28;20154;-59
2023/10/04 07:37:14;;;;;;;16.07;8.50;;;14.30;99.90;;;;;;4211149;28;20139;-60
2023/10/04 07:39:15;;;;;;;17.23;8.73;;;14.30;99.90;;;;;;4208086;28;20113;-58
2023/10/04 07:41:17;;;;;;;22.70;8.50;;;14.20;99.90;;;;;;4210497;28;20028;-58
2023/10/04 07:43:18;;;;;;;16.83;9.23;;;14.00;99.90;;;;;;4210305;28;20035;-58
2023/10/04 07:45:21;;;;;;;19.33;9.73;;;13.90;99.90;;;;;;4208703;28;20036;-59
2023/10/04 07:47:22;;;;;;;14.73;8.53;;;14.00;99.90;;;;;;4209968;28;20549;-59
2023/10/04 07:49:23;;;;;;;14.18;7.40;;;13.90;99.90;;;;;;4209539;28;20024;-57
2023/10/04 07:51:24;;;;;;;13.10;7.10;;;13.90;99.90;;;;;;4210404;28;20040;-60
2023/10/04 07:53:26;;;;;;;14.32;7.28;;;13.70;99.90;;;;;;4209434;28;20066;-60
2023/10/04 07:55:27;;;;;;;12.73;7.47;;;13.70;99.90;;;;;;4210776;28;20123;-59
2023/10/04 07:57:28;;;;;;;14.67;6.90;;;13.90;99.90;;;;;;4209554;28;20083;-60
2023/10/04 07:59:29;;;;;;;11.67;6.53;;;14.00;99.90;;;;;;4210659;28;20028;-60
2023/10/04 08:01:30;;;;;;;18.83;7.28;;;14.00;99.90;;;;;;4209315;28;20036;-59
2023/10/04 08:03:32;;;;;;;15.27;7.30;;;14.30;99.90;;;;;;4210540;28;20054;-60
2023/10/04 08:05:34;;;;;;;14.07;6.30;;;14.60;99.90;;;;;;4209320;28;20036;-59
2023/10/04 08:07:36;;;;;;;15.73;6.57;;;14.80;99.90;;;;;;4210832;28;20097;-59
2023/10/04 08:09:41;;;;;;;24.50;7.93;;;14.90;99.90;;;;;;4209320;28;20105;-58
2023/10/04 08:11:42;;;;;;;12.88;6.47;;;15.00;99.90;;;;;;4209984;28;20043;-58
2023/10/04 08:13:46;;;;;;;15.88;8.15;;;15.10;99.90;;;;;;4209305;28;20415;-57
2023/10/04 08:15:48;;;;;;;11.85;6.38;;;15.30;99.90;;;;;;4209660;28;20040;-61
2023/10/04 08:17:51;;;;;;;16.80;6.80;;;15.30;99.90;;;;;;4209715;28;20085;-61
2023/10/04 08:19:52;;;;;;;14.70;7.95;;;15.30;99.90;;;;;;4209584;28;20031;-59
2023/10/04 08:21:53;;;;;;;15.02;7.78;;;15.40;99.90;;;;;;4209826;28;20040;-60
2023/10/04 08:23:55;;;;;;;10.93;5.97;;;15.50;99.90;;;;;;4208885;28;20488;-59
2023/10/04 08:25:56;;;;;;;14.63;7.50;;;15.50;99.90;;;;;;4210235;28;20135;-56
2023/10/04 08:27:57;;;;;;;13.68;6.55;;;15.60;99.90;;;;;;4207656;28;20032;-59
2023/10/04 08:29:58;;;;;;;16.85;7.60;;;15.70;99.90;;;;;;4210267;28;20028;-59
2023/10/04 08:31:59;;;;;;;15.07;6.95;;;15.60;99.90;;;;;;4210924;28;20464;-58
2023/10/04 08:34:01;;;;;;;16.20;7.10;;;15.80;99.90;;;;;;4213261;28;20476;-60
2023/10/04 08:36:08;;;;;;;15.95;7.63;;;16.00;99.90;;;;;;4212607;28;20110;-60
2023/10/04 08:38:10;;;;;;;16.48;7.50;;;16.20;99.90;;;;;;4214147;28;20106;-59
2023/10/04 08:40:12;;;;;;;12.98;6.57;;;16.40;99.90;;;;;;4212742;28;20054;-60
2023/10/04 08:42:13;;;;;;;10.68;6.03;;;16.40;99.90;;;;;;4213994;28;20020;-61
2023/10/04 08:44:15;;;;;;;19.17;4.88;;;16.60;99.90;;;;;;4212865;28;20085;-60
2023/10/04 08:46:18;;;;;;;13.88;5.82;;;16.70;99.90;;;;;;4211753;28;20097;-61
2023/10/04 08:48:19;;;;;;;11.90;5.38;;;16.90;99.90;;;;;;4212663;28;20084;-60
2023/10/04 08:50:41;;;;;;;10.48;5.72;;;17.10;99.90;;;;;;4212931;28;20036;-59
2023/10/04 08:52:47;;;;;;;12.65;6.18;;;17.20;99.90;;;;;;4212684;28;20399;-60
2023/10/04 08:54:56;;;;;;;13.90;6.20;;;17.20;99.90;;;;;;4213031;28;20145;-60
2023/10/04 08:57:14;;;;;;;12.73;6.82;;;17.40;99.90;;;;;;4212484;28;20427;-59
2023/10/04 08:59:17;;;;;;;12.02;6.40;;;17.40;99.90;;;;;;4213000;28;20032;-58
2023/10/04 09:01:20;;;;;;;13.23;6.35;;;17.50;99.90;;;;;;4212490;28;20048;-60
2023/10/04 09:03:22;;;;;;;12.10;5.72;;;17.50;99.90;;;;;;4212982;28;20077;-60
2023/10/04 09:05:28;;;;;;;11.00;5.93;;;17.40;99.90;;;;;;4212658;28;20036;-58
2023/10/04 09:07:30;;;;;;;14.60;6.95;;;17.70;99.90;;;;;;4212664;28;20040;-60
2023/10/04 09:09:33;;;;;;;12.35;6.28;;;17.70;99.90;;;;;;4213046;28;20414;-60
2023/10/04 09:11:34;;;;;;;13.90;7.00;;;17.90;99.90;;;;;;4212004;28;20032;-58
2023/10/04 09:13:44;;;;;;;12.35;7.18;;;18.00;99.90;;;;;;4213091;28;20024;-59
2023/10/04 09:15:45;;;;;;;;;;;18.10;99.90;;;;;;4212878;28;20056;-60
2023/10/04 09:17:55;;;;;;;17.10;7.22;;;18.20;99.90;;;;;;4213734;28;20302;-60
2023/10/04 09:19:56;;;;;;;16.73;8.38;;;18.20;99.90;;;;;;4212402;28;20073;-60
2023/10/04 09:22:05;;;;;;;19.35;7.72;;;18.20;99.90;;;;;;4213158;28;20036;-59
2023/10/04 09:24:14;;;;;;;15.00;8.50;;;18.20;99.90;;;;;;4211929;28;20113;-60
2023/10/04 09:26:16;;;;;;;24.30;9.05;;;18.30;99.90;;;;;;4213091;28;20036;-60
2023/10/04 09:28:18;;;;;;;13.05;7.78;;;18.40;99.90;;;;;;4211795;28;20450;-59
2023/10/04 09:30:24;;;;;;;15.52;7.90;;;18.30;99.90;;;;;;4213330;28;20028;-60
2023/10/04 09:32:40;;;;;;;14.85;7.40;;;18.30;99.90;;;;;;4211791;28;20032;-58
2023/10/04 09:34:57;;;;;;;14.93;6.65;;;18.20;99.90;;;;;;4213039;28;20028;-59
2023/10/04 09:36:59;;;;;;;12.05;6.20;;;18.30;99.90;;;;;;4211517;28;20447;-58
2023/10/04 09:39:08;;;;;;;14.30;6.57;;;18.40;99.90;;;;;;4213048;28;20096;-58
2023/10/04 09:41:10;;;;;;;9.93;5.68;;;18.50;99.90;;;;;;4211719;28;20032;-60
2023/10/04 09:43:11;;;;;;;11.32;5.95;;;18.60;99.90;;;;;;4211856;28;20066;-58
2023/10/04 09:45:13;;;;;;;11.88;5.90;;;18.60;99.90;;;;;;4211926;28;20085;-58
2023/10/04 09:47:14;;;;;;;12.05;5.03;;;18.70;99.90;;;;;;4212582;28;20391;-59
2023/10/04 09:49:16;;;;;;;15.63;6.88;;;18.80;99.90;;;;;;4211530;28;20141;-57
2023/10/04 09:51:21;;;;;;;9.45;5.75;;;18.80;99.90;;;;;;4212513;28;20105;-59
2023/10/04 09:53:22;;;;;;;10.25;6.00;;;18.90;99.90;;;;;;4211536;28;20117;-59
2023/10/04 09:55:25;;;;;;;12.02;6.05;;;19.00;99.90;;;;;;4212251;28;20055;-59
2023/10/04 09:57:31;;;;;;;10.90;5.82;;;19.10;99.90;;;;;;4211769;28;20040;-58
2023/10/04 09:59:34;;;;;;;12.77;5.63;;;19.10;99.90;;;;;;4211702;28;20040;-60
2023/10/04 10:01:39;;;;;;;12.23;4.97;;;19.10;99.90;;;;;;4211886;28;20040;-58
2023/10/04 10:03:55;;;;;;;9.20;5.53;;;19.10;99.90;;;;;;4211665;28;20043;-59
2023/10/04 10:05:56;;;;;;;10.95;5.28;;;19.20;99.90;;;;;;4211797;28;20091;-59
2023/10/04 10:08:05;;;;;;;9.88;5.57;;;19.30;99.90;;;;;;4211815;28;20032;-59
2023/10/04 10:10:12;;;;;;;9.90;5.80;;;19.20;99.90;;;;;;4212100;28;20370;-59
2023/10/04 10:12:15;;;;;;;13.90;5.45;;;19.40;99.90;;;;;;4211300;28;20483;-59
2023/10/04 10:14:17;;;;;;;15.48;4.90;;;19.40;99.90;;;;;;4211816;28;20089;-59
2023/10/04 10:16:19;;;;;;;11.68;5.20;;;19.60;99.90;;;;;;4211135;28;20476;-59
2023/10/04 10:18:21;;;;;;;10.75;5.82;;;19.70;99.90;;;;;;4212300;28;20086;-59
2023/10/04 10:20:23;;;;;;;8.55;5.10;;;19.60;99.90;;;;;;4211121;28;20040;-59
2023/10/04 10:22:24;;;;;;;8.73;5.40;;;19.60;99.90;;;;;;4212114;28;20105;-59
2023/10/04 10:24:25;;;;;;;10.73;5.20;;;19.80;99.90;;;;;;4210537;28;20040;-60
2023/10/04 10:26:27;;;;;;;10.23;4.95;;;19.90;99.90;;;;;;4211556;28;20105;-59
2023/10/04 10:28:31;;;;;;;12.15;5.03;;;20.00;99.90;;;;;;4210905;28;20035;-59
2023/10/04 10:30:33;;;;;;;13.75;5.38;;;20.10;99.90;;;;;;4211900;28;20093;-58
2023/10/04 10:32:34;;;;;;;9.27;5.10;;;20.20;99.90;;;;;;4210791;28;20043;-61
2023/10/04 10:34:35;;;;;;;14.52;5.72;;;20.20;99.90;;;;;;4211495;28;20078;-59
2023/10/04 10:36:37;;;;;;;7.95;4.68;;;20.10;99.90;;;;;;4210901;28;20493;-59
2023/10/04 10:38:41;;;;;;;11.15;4.93;;;20.00;99.90;;;;;;4211805;28;20035;-60